createdAt,value
2018-04-01T00:00:51.069Z,57.07
2018-04-01T00:03:17.154Z,45.57
2018-04-01T00:05:43.956Z,48.90
2018-04-01T00:08:10.036Z,48.40
2018-04-01T00:10:37.385Z,34.30
2018-04-01T00:13:04.213Z,48.80
2018-04-01T00:15:30.276Z,56.30
2018-04-01T00:17:56.360Z,47.27
2018-04-01T00:20:22.416Z,58.00
2018-04-01T00:22:49.240Z,52.17
2018-04-01T00:25:16.036Z,52.10
2018-04-01T00:27:42.139Z,53.63
2018-04-01T00:30:08.192Z,50.93
2018-04-01T00:32:34.304Z,57.77
2018-04-01T00:35:00.368Z,60.80
2018-04-01T00:37:26.423Z,58.17
2018-04-01T00:39:53.240Z,48.67
2018-04-01T00:42:19.300Z,57.20
2018-04-01T00:44:45.384Z,59.60
2018-04-01T00:47:11.440Z,70.43
2018-04-01T00:49:38.260Z,49.77
2018-04-01T00:52:04.317Z,58.60
2018-04-01T00:54:31.140Z,53.20
2018-04-01T00:56:57.197Z,59.20
2018-04-01T00:59:23.272Z,57.40
2018-04-01T01:01:49.333Z,57.10
2018-04-01T01:04:16.164Z,37.73
2018-04-01T01:06:42.989Z,51.23
2018-04-01T01:09:09.119Z,44.60
2018-04-01T01:11:35.179Z,47.50
2018-04-01T01:14:01.268Z,50.87
2018-04-01T01:16:27.688Z,51.17
2018-04-01T01:18:55.041Z,37.70
2018-04-01T01:21:22.295Z,46.47
2018-04-01T01:23:48.376Z,49.33
2018-04-01T01:26:14.501Z,38.30
2018-04-01T01:28:40.580Z,39.47
2018-04-01T01:31:06.641Z,40.90
2018-04-01T01:33:33.455Z,40.83
2018-04-01T01:35:59.518Z,36.17
2018-04-01T01:38:25.872Z,40.40
2018-04-01T01:40:51.931Z,38.00
2018-04-01T01:43:18.031Z,41.63
2018-04-01T01:45:44.089Z,60.07
2018-04-01T01:48:10.920Z,85.07
2018-04-01T01:50:37.020Z,93.70
2018-04-01T01:53:03.081Z,98.70
2018-04-01T01:55:29.197Z,77.30
2018-04-01T01:57:55.281Z,82.27
2018-04-01T02:00:21.405Z,76.57
2018-04-01T02:02:47.460Z,79.03
2018-04-01T02:05:13.560Z,72.27
2018-04-01T02:07:39.664Z,85.20
2018-04-01T02:10:06.466Z,70.90
2018-04-01T02:12:32.548Z,71.03
2018-04-01T02:14:58.625Z,75.73
2018-04-01T02:17:24.728Z,82.87
2018-04-01T02:19:50.788Z,75.23
2018-04-01T02:22:16.905Z,85.77
2018-04-01T02:24:42.985Z,74.00
2018-04-01T02:27:09.092Z,83.77
2018-04-01T02:29:35.906Z,87.43
2018-04-01T02:32:02.004Z,75.90
2018-04-01T02:34:28.078Z,83.07
2018-04-01T02:36:54.901Z,72.70
2018-04-01T02:39:20.960Z,65.13
2018-04-01T02:41:47.053Z,84.60
2018-04-01T02:44:13.114Z,73.47
2018-04-01T02:46:39.198Z,67.63
2018-04-01T02:49:06.733Z,72.20
2018-04-01T02:51:32.833Z,50.63
2018-04-01T02:53:59.181Z,51.83
2018-04-01T02:56:25.248Z,70.67
2018-04-01T02:58:51.328Z,66.27
2018-04-01T03:01:17.384Z,68.47
2018-04-01T03:03:43.460Z,47.77
2018-04-01T03:06:09.521Z,72.87
2018-04-01T03:08:35.613Z,65.93
2018-04-01T03:11:02.147Z,54.23
2018-04-01T03:13:28.247Z,68.40
2018-04-01T03:15:54.308Z,43.17
2018-04-01T03:18:20.812Z,58.17
2018-04-01T03:20:47.646Z,58.63
2018-04-01T03:23:13.705Z,53.83
2018-04-01T03:25:39.794Z,52.43
2018-04-01T03:28:05.880Z,53.80
2018-04-01T03:30:31.961Z,55.63
2018-04-01T03:32:58.760Z,54.73
2018-04-01T03:35:24.845Z,49.17
2018-04-01T03:37:50.909Z,50.20
2018-04-01T03:40:16.987Z,53.47
2018-04-01T03:42:43.786Z,56.40
2018-04-01T03:45:10.033Z,37.77
2018-04-01T03:47:36.094Z,56.53
2018-04-01T03:50:02.885Z,48.57
2018-04-01T03:52:28.974Z,48.43
2018-04-01T03:54:55.027Z,46.57
2018-04-01T03:57:21.103Z,30.60
2018-04-01T03:59:47.906Z,43.20
2018-04-01T04:02:14.009Z,29.90
2018-04-01T04:04:40.076Z,41.03
2018-04-01T04:07:06.182Z,42.33
2018-04-01T04:09:32.240Z,38.43
2018-04-01T04:11:59.059Z,46.00
2018-04-01T04:14:25.112Z,45.80
2018-04-01T04:16:52.464Z,52.43
2018-04-01T04:19:19.256Z,38.33
2018-04-01T04:21:45.492Z,45.83
2018-04-01T04:24:11.544Z,39.33
2018-04-01T04:26:37.632Z,47.10
2018-04-01T04:29:03.715Z,36.53
2018-04-01T04:31:30.517Z,40.17
2018-04-01T04:33:56.595Z,40.93
2018-04-01T04:36:23.389Z,56.90
2018-04-01T04:38:49.468Z,41.90
2018-04-01T04:41:15.553Z,41.63
2018-04-01T04:43:41.640Z,45.80
2018-04-01T04:46:07.699Z,36.17
2018-04-01T04:48:33.781Z,45.13
2018-04-01T04:50:59.846Z,36.33
2018-04-01T04:53:26.676Z,35.73
2018-04-01T04:55:52.757Z,46.83
2018-04-01T04:58:18.832Z,36.13
2018-04-01T05:00:44.912Z,37.37
2018-04-01T05:03:11.708Z,45.13
2018-04-01T05:05:37.788Z,38.53
2018-04-01T05:08:03.844Z,42.40
2018-04-01T05:10:29.935Z,30.13
2018-04-01T05:12:55.999Z,43.77
2018-04-01T05:15:22.088Z,44.43
2018-04-01T05:17:48.154Z,33.37
2018-04-01T05:20:14.260Z,27.73
2018-04-01T05:22:40.335Z,23.40
2018-04-01T05:25:06.542Z,42.00
2018-04-01T05:27:32.620Z,33.93
2018-04-01T05:29:58.690Z,37.27
2018-04-01T05:32:24.764Z,28.27
2018-04-01T05:34:51.565Z,18.23
2018-04-01T05:37:18.380Z,20.90
2018-04-01T05:39:44.428Z,24.83
2018-04-01T05:42:10.517Z,36.20
2018-04-01T05:44:36.576Z,34.83
2018-04-01T05:47:02.660Z,28.37
2018-04-01T05:49:28.731Z,41.67
2018-04-01T05:51:54.805Z,33.43
2018-04-01T05:54:20.864Z,39.13
2018-04-01T05:56:46.952Z,35.00
2018-04-01T05:59:13.012Z,42.07
2018-04-01T06:01:39.440Z,40.73
2018-04-01T06:04:05.492Z,37.20
2018-04-01T06:06:31.580Z,42.80
2018-04-01T06:08:57.639Z,26.30
2018-04-01T06:11:23.740Z,27.40
2018-04-01T06:13:49.800Z,24.27
2018-04-01T06:16:15.901Z,19.67
2018-04-01T06:18:41.971Z,48.27
2018-04-01T06:21:08.033Z,30.87
2018-04-01T06:23:34.112Z,36.37
2018-04-01T06:26:01.676Z,39.67
2018-04-01T06:28:28.496Z,44.20
2018-04-01T06:30:54.548Z,30.13
2018-04-01T06:33:20.627Z,24.30
2018-04-01T06:35:46.684Z,44.53
2018-04-01T06:38:12.764Z,39.80
2018-04-01T06:40:38.813Z,31.80
2018-04-01T06:43:04.903Z,32.77
2018-04-01T06:45:30.962Z,22.83
2018-04-01T06:47:57.409Z,49.90
2018-04-01T06:50:23.484Z,47.67
2018-04-01T06:52:50.280Z,43.87
2018-04-01T06:55:16.377Z,53.20
2018-04-01T06:57:42.433Z,36.80
2018-04-01T07:00:08.525Z,50.63
2018-04-01T07:02:34.592Z,48.43
2018-04-01T07:05:00.680Z,53.00
2018-04-01T07:07:26.740Z,49.07
2018-04-01T07:09:52.816Z,44.57
2018-04-01T07:12:18.881Z,36.17
2018-04-01T07:14:44.972Z,41.27
2018-04-01T07:17:11.033Z,40.80
2018-04-01T07:19:37.104Z,24.80
2018-04-01T07:22:03.934Z,47.40
2018-04-01T07:24:30.737Z,48.87
2018-04-01T07:26:56.860Z,45.27
2018-04-01T07:29:22.921Z,46.63
2018-04-01T07:31:49.006Z,46.43
2018-04-01T07:34:15.061Z,35.70
2018-04-01T07:36:41.145Z,45.70
2018-04-01T07:39:07.208Z,47.43
2018-04-01T07:41:34.044Z,47.60
2018-04-01T07:44:00.113Z,55.10
2018-04-01T07:46:27.344Z,45.47
2018-04-01T07:48:54.168Z,41.60
2018-04-01T07:51:20.224Z,39.23
2018-04-01T07:53:47.048Z,47.10
2018-04-01T07:56:13.440Z,36.37
2018-04-01T07:58:39.524Z,48.67
2018-04-01T08:01:06.335Z,38.80
2018-04-01T08:03:32.420Z,45.93
2018-04-01T08:05:58.478Z,44.00
2018-04-01T08:08:24.556Z,31.37
2018-04-01T08:10:51.353Z,39.37
2018-04-01T08:13:17.429Z,34.23
2018-04-01T08:15:43.483Z,38.13
2018-04-01T08:18:09.583Z,56.60
2018-04-01T08:20:35.652Z,57.57
2018-04-01T08:23:01.748Z,44.00
2018-04-01T08:25:28.087Z,46.37
2018-04-01T08:27:54.204Z,44.50
2018-04-01T08:30:20.302Z,54.23
2018-04-01T08:32:47.109Z,59.17
2018-04-01T08:35:13.990Z,40.20
2018-04-01T08:37:40.800Z,46.37
2018-04-01T08:40:06.929Z,45.70
2018-04-01T08:42:32.984Z,38.70
2018-04-01T08:44:59.808Z,44.60
2018-04-01T08:47:26.648Z,24.53
2018-04-01T08:49:52.729Z,34.27
2018-04-01T08:52:18.785Z,31.27
2018-04-01T08:54:44.868Z,40.83
2018-04-01T08:57:10.924Z,37.00
2018-04-01T08:59:37.004Z,42.47
2018-04-01T09:02:03.813Z,31.83
2018-04-01T09:04:29.897Z,37.80
2018-04-01T09:06:55.947Z,34.77
2018-04-01T09:09:22.066Z,38.97
2018-04-01T09:11:48.135Z,38.63
2018-04-01T09:14:14.969Z,40.30
2018-04-01T09:16:41.063Z,35.30
2018-04-01T09:19:07.129Z,42.23
2018-04-01T09:21:33.212Z,39.43
2018-04-01T09:23:59.289Z,31.27
2018-04-01T09:26:26.132Z,38.73
2018-04-01T09:28:52.932Z,38.97
2018-04-01T09:31:19.008Z,41.63
2018-04-01T09:33:45.088Z,45.13
2018-04-01T09:36:11.319Z,50.30
2018-04-01T09:38:37.375Z,42.43
2018-04-01T09:41:04.196Z,32.37
2018-04-01T09:43:30.276Z,39.53
2018-04-01T09:45:56.334Z,25.23
2018-04-01T09:48:22.412Z,33.73
2018-04-01T09:50:49.208Z,29.07
2018-04-01T09:53:15.283Z,34.73
2018-04-01T09:55:41.336Z,47.37
2018-04-01T09:58:07.416Z,23.83
2018-04-01T10:00:40.572Z,27.77
2018-04-01T10:03:06.788Z,24.93
2018-04-01T10:05:33.006Z,20.63
2018-04-01T10:07:59.235Z,41.30
2018-04-01T10:10:25.436Z,19.17
2018-04-01T10:12:52.415Z,14.97
2018-04-01T10:15:18.618Z,27.30
2018-04-01T10:17:44.913Z,29.33
2018-04-01T10:20:11.221Z,21.43
2018-04-01T10:22:38.104Z,21.57
2018-04-01T10:25:05.089Z,21.37
2018-04-01T10:27:31.282Z,20.67
2018-04-01T10:29:58.232Z,33.23
2018-04-01T10:32:25.164Z,23.87
2018-04-01T10:34:51.385Z,19.17
2018-04-01T10:37:20.712Z,25.60
2018-04-01T10:39:48.644Z,25.13
2018-04-01T10:42:14.828Z,18.33
2018-04-01T10:44:41.045Z,21.10
2018-04-01T10:47:07.240Z,18.67
2018-04-01T10:49:34.270Z,16.20
2018-04-01T10:52:00.529Z,19.10
2018-04-01T10:54:27.355Z,21.63
2018-04-01T10:56:54.162Z,18.73
2018-04-01T10:59:20.268Z,14.67
2018-04-01T11:01:46.324Z,19.87
2018-04-01T11:04:12.384Z,21.73
2018-04-01T11:06:39.206Z,16.63
2018-04-01T11:09:05.265Z,30.40
2018-04-01T11:11:32.136Z,21.27
2018-04-01T11:13:58.204Z,17.37
2018-04-01T11:16:24.368Z,17.03
2018-04-01T11:18:51.168Z,17.20
2018-04-01T11:21:17.224Z,16.30
2018-04-01T11:23:44.049Z,19.87
2018-04-01T11:26:10.139Z,14.97
2018-04-01T11:28:36.220Z,12.50
2018-04-01T11:31:03.020Z,17.00
2018-04-01T11:33:29.101Z,16.60
2018-04-01T11:35:55.898Z,16.03
2018-04-01T11:38:21.985Z,15.17
2018-04-01T11:40:48.071Z,16.60
2018-04-01T11:43:14.160Z,16.67
2018-04-01T11:45:40.216Z,17.63
2018-04-01T11:48:06.268Z,23.97
2018-04-01T11:50:33.088Z,16.47
2018-04-01T11:52:59.151Z,41.80
2018-04-01T11:55:25.244Z,43.57
2018-04-01T11:57:51.305Z,16.50
2018-04-01T12:00:17.380Z,20.30
2018-04-01T12:02:43.440Z,18.43
2018-04-01T12:05:10.263Z,20.70
2018-04-01T12:07:36.320Z,20.00
2018-04-01T12:10:02.447Z,17.80
2018-04-01T12:12:29.217Z,20.60
2018-04-01T12:14:55.304Z,23.63
2018-04-01T12:17:22.120Z,20.50
2018-04-01T12:19:49.680Z,28.10
2018-04-01T12:22:16.481Z,27.10
2018-04-01T12:24:42.552Z,41.00
2018-04-01T12:27:08.632Z,44.53
2018-04-01T12:29:34.728Z,38.63
2018-04-01T12:32:02.536Z,36.50
2018-04-01T12:34:29.509Z,58.93
2018-04-01T12:36:56.345Z,21.17
2018-04-01T12:39:22.440Z,17.00
2018-04-01T12:41:48.504Z,16.50
2018-04-01T12:44:14.599Z,12.67
2018-04-01T12:46:40.656Z,13.63
2018-04-01T12:49:06.707Z,17.63
2018-04-01T12:51:33.529Z,16.07
2018-04-01T12:53:59.588Z,13.57
2018-04-01T12:56:25.674Z,14.90
2018-04-01T12:58:51.723Z,19.73
2018-04-01T13:01:18.553Z,14.60
2018-04-01T13:03:44.633Z,11.80
2018-04-01T13:06:10.734Z,13.33
2018-04-01T13:08:36.791Z,10.67
2018-04-01T13:11:02.867Z,9.10
2018-04-01T13:13:29.663Z,9.73
2018-04-01T13:15:55.772Z,12.03
2018-04-01T13:18:21.829Z,11.80
2018-04-01T13:20:47.913Z,10.90
2018-04-01T13:23:13.974Z,13.43
2018-04-01T13:25:40.024Z,10.80
2018-04-01T13:28:06.100Z,10.43
2018-04-01T13:30:32.168Z,8.27
2018-04-01T13:32:58.255Z,11.83
2018-04-01T13:35:24.309Z,11.97
2018-04-01T13:37:50.405Z,11.93
2018-04-01T13:40:16.561Z,11.20
2018-04-01T13:42:43.772Z,12.30
2018-04-01T13:45:10.768Z,13.33
2018-04-01T13:47:36.820Z,16.80
2018-04-01T13:50:03.690Z,11.97
2018-04-01T13:52:29.755Z,12.37
2018-04-01T13:54:55.856Z,12.00
2018-04-01T13:57:21.947Z,13.97
2018-04-01T13:59:48.052Z,12.60
2018-04-01T14:02:14.109Z,16.97
2018-04-01T14:04:40.215Z,12.70
2018-04-01T14:07:06.284Z,13.17
2018-04-01T14:09:32.372Z,15.13
2018-04-01T14:11:59.180Z,11.87
2018-04-01T14:14:25.266Z,18.23
2018-04-01T14:16:51.354Z,12.03
2018-04-01T14:19:17.440Z,13.00
2018-04-01T14:21:43.509Z,19.40
2018-04-01T14:24:10.344Z,13.50
2018-04-01T14:26:37.164Z,14.43
2018-04-01T14:29:03.244Z,14.33
2018-04-01T14:31:29.303Z,15.17
2018-04-01T14:33:55.447Z,12.50
2018-04-01T14:36:21.504Z,13.57
2018-04-01T14:38:48.332Z,12.37
2018-04-01T14:41:15.872Z,12.40
2018-04-01T14:43:41.973Z,12.30
2018-04-01T14:46:08.060Z,8.10
2018-04-01T14:48:34.860Z,9.07
2018-04-01T14:51:01.721Z,8.17
2018-04-01T14:53:27.782Z,9.27
2018-04-01T14:55:54.609Z,9.93
2018-04-01T14:58:21.403Z,9.33
2018-04-01T15:00:47.499Z,9.07
2018-04-01T15:03:13.547Z,11.17
2018-04-01T15:05:39.671Z,9.43
2018-04-01T15:08:05.733Z,52.30
2018-04-01T15:10:31.812Z,12.13
2018-04-01T15:12:57.888Z,11.77
2018-04-01T15:15:23.976Z,13.37
2018-04-01T15:17:50.040Z,11.53
2018-04-01T15:20:16.873Z,14.97
2018-04-01T15:22:44.648Z,15.50
2018-04-01T15:25:10.734Z,18.47
2018-04-01T15:27:36.819Z,14.30
2018-04-01T15:30:03.660Z,13.73
2018-04-01T15:32:30.460Z,18.87
2018-04-01T15:34:56.547Z,15.40
2018-04-01T15:37:23.372Z,19.53
2018-04-01T15:39:50.204Z,14.60
2018-04-01T15:42:16.261Z,17.63
2018-04-01T15:44:42.344Z,13.37
2018-04-01T15:47:08.412Z,14.37
2018-04-01T15:49:34.493Z,13.93
2018-04-01T15:52:01.411Z,11.73
2018-04-01T15:54:28.301Z,11.23
2018-04-01T15:56:54.361Z,11.33
2018-04-01T15:59:20.440Z,14.40
2018-04-01T16:01:46.520Z,14.97
2018-04-01T16:04:12.712Z,19.30
2018-04-01T16:06:39.516Z,13.50
2018-04-01T16:09:05.572Z,13.90
2018-04-01T16:11:31.944Z,13.60
2018-04-01T16:13:58.028Z,14.70
2018-04-01T16:16:24.089Z,17.93
2018-04-01T16:18:50.196Z,19.10
2018-04-01T16:21:16.996Z,17.10
2018-04-01T16:23:43.056Z,15.47
2018-04-01T16:26:09.227Z,16.10
2018-04-01T16:28:35.300Z,16.90
2018-04-01T16:31:01.381Z,15.50
2018-04-01T16:33:27.448Z,16.73
2018-04-01T16:35:53.532Z,15.83
2018-04-01T16:38:19.625Z,16.77
2018-04-01T16:40:46.457Z,20.95
2018-04-01T16:43:13.265Z,17.45
2018-04-01T16:45:39.353Z,19.93
2018-04-01T16:48:05.415Z,17.03
2018-04-01T16:50:31.495Z,15.70
2018-04-01T16:52:57.552Z,22.07
2018-04-01T16:55:23.633Z,18.53
2018-04-01T16:57:50.437Z,19.03
2018-04-01T17:00:16.490Z,16.10
2018-04-01T17:02:42.571Z,15.43
2018-04-01T17:05:09.423Z,19.60
2018-04-01T17:07:35.500Z,19.57
2018-04-01T17:10:02.301Z,14.80
2018-04-01T17:12:28.380Z,16.77
2018-04-01T17:14:54.432Z,18.20
2018-04-01T17:17:20.517Z,12.90
2018-04-01T17:19:47.308Z,39.80
2018-04-01T17:22:13.400Z,23.53
2018-04-01T17:24:39.448Z,18.23
2018-04-01T17:27:05.537Z,19.53
2018-04-01T17:29:32.368Z,18.35
2018-04-01T17:31:59.189Z,26.90
2018-04-01T17:34:25.277Z,31.97
2018-04-01T17:36:51.338Z,34.17
2018-04-01T17:39:17.413Z,31.93
2018-04-01T17:41:43.477Z,35.80
2018-04-01T17:44:09.576Z,33.50
2018-04-01T17:46:35.683Z,29.43
2018-04-01T17:49:02.507Z,36.30
2018-04-01T17:51:28.567Z,34.80
2018-04-01T17:53:54.648Z,35.73
2018-04-01T17:56:20.700Z,36.03
2018-04-01T17:58:47.520Z,34.00
2018-04-01T18:01:13.585Z,38.87
2018-04-01T18:03:39.721Z,37.00
2018-04-01T18:06:06.556Z,33.07
2018-04-01T18:08:32.623Z,34.60
2018-04-01T18:10:58.695Z,39.50
2018-04-01T18:13:25.496Z,33.53
2018-04-01T18:15:51.600Z,41.10
2018-04-01T18:18:17.665Z,30.50
2018-04-01T18:20:43.751Z,24.70
2018-04-01T18:23:09.894Z,37.63
2018-04-01T18:25:35.996Z,29.10
2018-04-01T18:28:02.051Z,21.53
2018-04-01T18:30:28.150Z,23.07
2018-04-01T18:32:54.196Z,18.50
2018-04-01T18:35:20.340Z,20.23
2018-04-01T18:37:47.681Z,22.77
2018-04-01T18:40:14.552Z,24.60
2018-04-01T18:42:41.356Z,23.13
2018-04-01T18:45:07.433Z,20.63
2018-04-01T18:47:34.253Z,32.00
2018-04-01T18:50:00.310Z,19.80
2018-04-01T18:52:26.409Z,23.27
2018-04-01T18:54:52.477Z,27.50
2018-04-01T18:57:18.576Z,25.77
2018-04-01T18:59:45.378Z,25.33
2018-04-01T19:02:11.616Z,36.23
2018-04-01T19:04:38.428Z,26.60
2018-04-01T19:07:04.505Z,19.63
2018-04-01T19:09:30.656Z,22.40
2018-04-01T19:11:56.766Z,22.23
2018-04-01T19:14:23.573Z,26.57
2018-04-01T19:19:49.956Z,27.00
2018-04-01T19:22:16.937Z,28.23
2018-04-01T19:24:43.150Z,24.30
2018-04-01T19:27:10.127Z,25.37
2018-04-01T19:29:36.322Z,22.23
2018-04-01T19:32:03.535Z,26.20
2018-04-01T19:34:29.748Z,19.10
2018-04-01T19:36:56.680Z,22.10
2018-04-01T19:39:22.900Z,24.20
2018-04-01T19:41:49.115Z,23.10
2018-04-01T19:44:15.340Z,21.77
2018-04-01T19:46:41.533Z,32.23
2018-04-01T19:49:08.029Z,20.13
2018-04-01T19:51:34.243Z,25.67
2018-04-01T19:54:00.568Z,22.90
2018-04-01T19:56:26.756Z,31.00
2018-04-01T19:58:52.984Z,30.60
2018-04-01T20:01:19.177Z,31.70
2018-04-01T20:03:45.452Z,28.63
2018-04-01T20:06:11.664Z,19.83
2018-04-01T20:08:37.879Z,24.27
2018-04-01T20:11:04.132Z,24.27
2018-04-01T20:13:31.089Z,18.00
2018-04-01T20:15:57.348Z,35.23
2018-04-01T20:18:23.613Z,20.17
2018-04-01T20:20:49.860Z,18.50
2018-04-01T20:23:16.085Z,19.20
2018-04-01T20:25:42.328Z,25.07
2018-04-01T20:28:09.257Z,27.37
2018-04-01T20:30:35.472Z,25.10
2018-04-01T20:33:01.660Z,25.77
2018-04-01T20:35:28.665Z,26.23
2018-04-01T20:37:54.872Z,20.87
2018-04-01T20:40:21.460Z,18.80
2018-04-01T20:42:48.396Z,22.60
2018-04-01T20:45:14.645Z,29.43
2018-04-01T20:47:41.577Z,34.20
2018-04-01T20:50:08.580Z,26.10
2018-04-01T20:52:34.769Z,20.73
2018-04-01T20:55:01.773Z,20.47
2018-04-01T20:57:27.964Z,26.93
2018-04-01T20:59:54.168Z,19.37
2018-04-01T21:02:21.128Z,26.73
2018-04-01T21:04:47.342Z,24.93
2018-04-01T21:07:14.302Z,22.10
2018-04-01T21:09:40.517Z,30.60
2018-04-01T21:12:07.497Z,31.17
2018-04-01T21:14:33.729Z,27.67
2018-04-01T21:16:59.945Z,32.50
2018-04-01T21:19:26.136Z,33.80
2018-04-01T21:21:52.324Z,31.30
2018-04-01T21:24:18.532Z,35.23
2018-04-01T21:26:44.745Z,23.03
2018-04-01T21:29:11.705Z,37.33
2018-04-01T21:31:37.888Z,32.47
2018-04-01T21:34:04.105Z,38.40
2018-04-01T21:36:30.297Z,37.30
2018-04-01T21:38:56.528Z,37.53
2018-04-01T21:41:22.724Z,32.97
2018-04-01T21:43:49.688Z,34.70
2018-04-01T21:46:15.888Z,40.97
2018-04-01T21:48:42.847Z,20.63
2018-04-01T21:51:09.776Z,38.80
2018-04-01T21:53:35.996Z,32.93
2018-04-01T21:56:02.199Z,37.13
2018-04-01T21:58:28.413Z,31.60
2018-04-01T22:00:54.609Z,39.07
2018-04-01T22:03:21.572Z,34.33
2018-04-01T22:05:47.756Z,34.00
2018-04-01T22:08:13.968Z,43.53
2018-04-01T22:10:40.166Z,32.07
2018-04-01T22:13:06.388Z,28.87
2018-04-01T22:15:32.575Z,35.03
2018-04-01T22:17:58.763Z,39.63
2018-04-01T22:20:24.988Z,37.07
2018-04-01T22:23:03.738Z,36.53
2018-04-01T22:25:29.972Z,41.00
2018-04-01T22:27:56.188Z,30.60
2018-04-01T22:30:22.408Z,40.17
2018-04-01T22:32:48.624Z,31.77
2018-04-01T22:35:14.837Z,26.00
2018-04-01T22:37:41.060Z,28.70
2018-04-01T22:40:08.024Z,29.33
2018-04-01T22:42:34.226Z,35.77
2018-04-01T22:45:01.238Z,40.37
2018-04-01T22:47:27.428Z,31.90
2018-04-01T22:49:53.668Z,40.90
2018-04-01T22:52:19.864Z,30.13
2018-04-01T22:54:46.829Z,31.37
2018-04-01T22:57:13.039Z,30.53
2018-04-01T22:59:39.993Z,35.63
2018-04-01T23:02:06.249Z,40.50
2018-04-01T23:04:32.460Z,37.57
2018-04-01T23:06:58.648Z,41.93
2018-04-01T23:09:25.064Z,46.50
2018-04-01T23:11:51.261Z,49.93
2018-04-01T23:14:17.452Z,57.17
2018-04-01T23:16:44.416Z,58.03
2018-04-01T23:19:10.652Z,44.47
2018-04-01T23:21:36.841Z,51.23
2018-04-01T23:24:03.048Z,48.47
2018-04-01T23:26:29.293Z,52.37
2018-04-01T23:28:55.492Z,48.67
2018-04-01T23:31:21.700Z,26.50
2018-04-01T23:33:47.888Z,49.23
2018-04-01T23:36:14.296Z,47.60
2018-04-01T23:38:40.544Z,46.67
2018-04-01T23:41:06.743Z,46.73
2018-04-01T23:43:32.960Z,54.77
2018-04-01T23:45:59.148Z,44.70
2018-04-01T23:48:26.105Z,49.43
2018-04-01T23:50:53.042Z,56.83
2018-04-01T23:53:20.068Z,39.20
2018-04-01T23:55:46.260Z,42.13
2018-04-01T23:58:12.476Z,48.00
